Time;durP1;ratioP1;P1;durP2;ratioP2;P2;SDS_P1;SDS_P2;PMS_P1;PMS_P2;Temp;Humidity;BMP_temperature;BMP_pressure;BME280_temperature;BME280_humidity;BME280_pressure;Samples;Min_cycle;Max_cycle;Signal;HPM_P1;HPM_P2
2023/07/30 00:01:40;;;;;;;9.07;5.57;;;15.90;99.90;;;;;;6070073;23;20026;-82
2023/07/30 00:04:06;;;;;;;8.60;5.47;;;15.90;99.90;;;;;;6069019;23;20330;-83
2023/07/30 00:06:32;;;;;;;8.63;5.30;;;15.90;99.90;;;;;;6093842;23;20019;-82
2023/07/30 00:08:57;;;;;;;9.05;5.70;;;15.90;99.90;;;;;;6093426;23;20030;-83
2023/07/30 00:11:23;;;;;;;8.95;6.03;;;15.90;99.90;;;;;;6045187;23;20014;-83
2023/07/30 00:13:49;;;;;;;9.38;5.30;;;15.80;99.90;;;;;;6045420;23;20021;-83
2023/07/30 00:16:15;;;;;;;10.70;5.82;;;15.90;99.90;;;;;;6069184;23;20495;-83
2023/07/30 00:18:40;;;;;;;8.57;5.47;;;15.90;99.90;;;;;;6093784;23;20058;-82
2023/07/30 00:21:06;;;;;;;12.90;5.65;;;15.80;99.90;;;;;;6069165;23;20053;-83
2023/07/30 00:23:32;;;;;;;12.77;5.72;;;15.80;99.90;;;;;;6045703;23;20634;-82
2023/07/30 00:25:57;;;;;;;10.60;5.90;;;15.90;99.90;;;;;;6093148;23;20010;-83
2023/07/30 00:28:23;;;;;;;11.52;5.80;;;15.90;99.90;;;;;;6068854;23;20081;-82
2023/07/30 00:30:49;;;;;;;12.85;5.70;;;15.90;99.90;;;;;;6069133;23;20018;-82
2023/07/30 00:33:14;;;;;;;13.40;6.13;;;15.90;99.90;;;;;;6045395;23;20014;-82
2023/07/30 00:35:40;;;;;;;13.18;5.85;;;15.90;99.90;;;;;;6069368;23;20022;-82
2023/07/30 00:38:06;;;;;;;10.82;5.43;;;15.90;99.90;;;;;;6069386;23;20025;-82
2023/07/30 00:40:31;;;;;;;13.13;6.30;;;15.90;99.90;;;;;;6069963;23;20105;-82
2023/07/30 00:42:57;;;;;;;13.57;6.35;;;15.80;99.90;;;;;;6069958;23;20011;-83
2023/07/30 00:45:23;;;;;;;13.90;6.18;;;15.80;99.90;;;;;;6070205;23;20046;-82
2023/07/30 00:47:48;;;;;;;13.77;5.82;;;15.80;99.90;;;;;;6046069;23;20018;-81
2023/07/30 00:50:16;;;;;;;13.32;6.03;;;15.80;99.90;;;;;;6046230;23;20097;-82
2023/07/30 00:52:43;;;;;;;11.52;6.07;;;15.70;99.90;;;;;;6070430;23;20018;-82
2023/07/30 00:55:10;;;;;;;11.80;5.75;;;15.70;99.90;;;;;;6093792;23;20022;-82
2023/07/30 00:57:36;;;;;;;12.52;6.13;;;15.70;99.90;;;;;;6093727;23;20010;-83
2023/07/30 01:00:05;;;;;;;9.68;5.85;;;15.70;99.90;;;;;;6046279;23;20046;-82
2023/07/30 01:02:35;;;;;;;11.27;5.63;;;15.60;99.90;;;;;;6071213;23;20354;-82
2023/07/30 01:05:03;;;;;;;12.52;5.93;;;15.60;99.90;;;;;;6096250;23;20027;-82
2023/07/30 01:07:28;;;;;;;12.43;6.18;;;15.60;99.90;;;;;;6072353;23;20015;-82
2023/07/30 01:09:54;;;;;;;9.50;5.90;;;15.50;99.90;;;;;;6071594;23;20073;-82
2023/07/30 01:12:21;;;;;;;11.95;6.03;;;15.50;99.90;;;;;;6071464;23;20014;-82
2023/07/30 01:14:48;;;;;;;10.30;6.55;;;15.40;99.90;;;;;;6095251;23;20049;-82
2023/07/30 01:17:14;;;;;;;13.85;5.90;;;15.40;99.90;;;;;;6095644;23;20064;-82
2023/07/30 01:19:39;;;;;;;10.23;5.70;;;15.40;99.90;;;;;;6095373;23;20395;-83
2023/07/30 01:22:05;;;;;;;9.98;5.50;;;15.40;99.90;;;;;;6095296;23;20093;-82
2023/07/30 01:24:31;;;;;;;10.88;6.30;;;15.40;99.90;;;;;;6046931;23;20453;-83
2023/07/30 01:27:05;;;;;;;10.13;5.68;;;15.30;99.90;;;;;;6094763;23;20022;-82
2023/07/30 01:29:54;;;;;;;11.70;6.20;;;15.30;99.90;;;;;;6094299;23;20419;-82
2023/07/30 01:32:28;;;;;;;10.48;5.45;;;15.30;99.90;;;;;;6095499;23;20018;-82
2023/07/30 01:34:57;;;;;;;12.45;6.18;;;15.30;99.90;;;;;;6094724;23;20025;-82
2023/07/30 01:37:23;;;;;;;11.25;6.15;;;15.20;99.90;;;;;;6094283;23;20061;-82
2023/07/30 01:39:50;;;;;;;9.63;5.80;;;15.20;99.90;;;;;;6093744;23;20099;-82
2023/07/30 01:42:16;;;;;;;12.50;6.20;;;15.20;99.90;;;;;;6094477;23;20069;-82
2023/07/30 01:44:42;;;;;;;11.65;5.95;;;15.20;99.90;;;;;;6095084;23;20010;-81
2023/07/30 01:47:08;;;;;;;9.73;5.68;;;15.10;99.90;;;;;;6070462;23;20367;-82
2023/07/30 01:49:33;;;;;;;11.65;6.40;;;15.10;99.90;;;;;;6071150;23;20022;-82
2023/07/30 01:51:59;;;;;;;10.52;5.75;;;15.10;99.90;;;;;;6094765;23;20014;-82
2023/07/30 01:54:25;;;;;;;15.35;6.53;;;15.10;99.90;;;;;;6071371;23;20014;-82
2023/07/30 01:56:51;;;;;;;10.95;6.25;;;15.00;99.90;;;;;;6094875;23;20076;-82
2023/07/30 01:59:17;;;;;;;11.80;6.57;;;15.00;99.90;;;;;;6094466;23;20541;-82
2023/07/30 02:01:44;;;;;;;13.30;6.75;;;15.00;99.90;;;;;;6070984;23;20018;-82
2023/07/30 02:04:09;;;;;;;12.98;6.72;;;15.00;99.90;;;;;;6094494;23;20341;-82
2023/07/30 02:06:35;;;;;;;12.98;6.50;;;14.90;99.90;;;;;;6070678;23;20018;-83
2023/07/30 02:09:02;;;;;;;12.63;6.45;;;14.90;99.90;;;;;;6070250;23;20022;-82
2023/07/30 02:11:28;;;;;;;13.73;6.35;;;14.90;99.90;;;;;;6094670;23;20098;-82
2023/07/30 02:13:54;;;;;;;11.50;6.22;;;14.90;99.90;;;;;;6070048;23;20011;-82
2023/07/30 02:16:19;;;;;;;15.50;6.75;;;14.90;99.90;;;;;;6046769;23;20104;-83
2023/07/30 02:18:45;;;;;;;12.05;5.95;;;14.90;99.90;;;;;;6070903;23;20015;-82
2023/07/30 02:21:11;;;;;;;15.10;6.22;;;14.90;99.90;;;;;;6069934;23;20014;-82
2023/07/30 02:23:37;;;;;;;16.73;5.82;;;14.90;99.90;;;;;;6070972;23;20073;-82
2023/07/30 02:26:02;;;;;;;10.10;5.07;;;14.80;99.90;;;;;;6069721;23;20097;-81
2023/07/30 02:28:28;;;;;;;11.07;5.47;;;14.80;99.90;;;;;;6070272;23;20109;-82
2023/07/30 02:30:54;;;;;;;16.17;5.35;;;14.80;99.90;;;;;;6092513;23;20638;-82
2023/07/30 02:33:19;;;;;;;12.65;5.20;;;14.90;99.90;;;;;;6045561;23;20056;-83
2023/07/30 02:35:45;;;;;;;12.52;5.25;;;14.80;99.90;;;;;;6093846;23;20014;-81
2023/07/30 02:38:11;;;;;;;11.40;5.50;;;14.90;99.90;;;;;;6070075;23;20075;-82
2023/07/30 02:40:36;;;;;;;17.15;5.43;;;14.90;99.90;;;;;;6094006;23;20018;-82
2023/07/30 02:43:02;;;;;;;12.65;5.15;;;14.90;99.90;;;;;;6070192;23;20070;-82
2023/07/30 02:45:28;;;;;;;11.20;4.95;;;14.80;99.90;;;;;;6094225;23;20101;-81
2023/07/30 02:47:53;;;;;;;15.25;5.00;;;14.90;99.90;;;;;;6070403;23;20077;-82
2023/07/30 02:50:19;;;;;;;10.75;4.80;;;14.90;99.90;;;;;;6070561;23;20046;-81
2023/07/30 02:52:45;;;;;;;13.65;5.63;;;14.90;99.90;;;;;;6070674;23;20015;-81
2023/07/30 02:55:10;;;;;;;12.52;4.85;;;14.90;99.90;;;;;;6070432;23;20062;-81
2023/07/30 02:57:36;;;;;;;13.85;5.03;;;14.80;99.90;;;;;;6046709;23;20018;-81
2023/07/30 03:00:04;;;;;;;9.68;4.63;;;14.90;99.90;;;;;;6046514;23;20018;-81
2023/07/30 03:02:29;;;;;;;9.25;4.47;;;14.90;99.90;;;;;;6094671;23;20038;-81
2023/07/30 03:04:55;;;;;;;14.38;4.88;;;14.90;99.90;;;;;;6070507;23;20019;-82
2023/07/30 03:07:21;;;;;;;17.63;5.57;;;14.90;99.90;;;;;;6094552;23;20060;-83
2023/07/30 03:09:47;;;;;;;12.82;4.80;;;14.90;99.90;;;;;;6046078;23;20629;-82
2023/07/30 03:12:13;;;;;;;11.00;4.30;;;14.90;99.90;;;;;;6069980;23;20068;-81
2023/07/30 03:14:39;;;;;;;12.73;4.43;;;14.90;99.90;;;;;;6069414;23;20014;-82
2023/07/30 03:17:05;;;;;;;12.07;4.43;;;14.90;99.90;;;;;;6046019;23;20018;-82
2023/07/30 03:19:31;;;;;;;11.73;4.72;;;14.90;99.90;;;;;;6069982;23;20015;-82
2023/07/30 03:21:57;;;;;;;12.93;4.72;;;14.90;99.90;;;;;;6070159;23;20014;-83
2023/07/30 03:24:22;;;;;;;15.85;4.45;;;14.90;99.90;;;;;;6070125;23;20258;-82
2023/07/30 03:26:48;;;;;;;16.25;4.70;;;14.90;99.90;;;;;;6093637;23;20093;-83
2023/07/30 03:29:15;;;;;;;11.95;4.65;;;14.90;99.90;;;;;;6070420;23;20020;-83
2023/07/30 03:31:41;;;;;;;10.68;4.35;;;14.90;99.90;;;;;;6093574;23;20026;-82
2023/07/30 03:34:06;;;;;;;12.95;4.40;;;14.90;99.90;;;;;;6094019;23;20019;-83
2023/07/30 03:36:32;;;;;;;10.68;4.20;;;14.90;99.90;;;;;;6093714;23;20026;-83
2023/07/30 03:38:58;;;;;;;9.80;4.45;;;14.90;99.90;;;;;;6069842;23;20022;-83
2023/07/30 03:41:24;;;;;;;13.30;4.90;;;14.90;99.90;;;;;;6045599;23;20093;-83
2023/07/30 03:43:50;;;;;;;12.90;4.75;;;14.90;99.90;;;;;;6070057;23;20097;-83
2023/07/30 03:46:15;;;;;;;12.50;4.75;;;14.90;99.90;;;;;;6070075;23;20018;-83
2023/07/30 03:48:41;;;;;;;15.80;4.30;;;14.90;99.90;;;;;;6045938;23;20019;-83
2023/07/30 03:51:07;;;;;;;9.25;4.13;;;14.90;99.90;;;;;;6069550;23;20349;-83
2023/07/30 03:53:33;;;;;;;11.25;4.88;;;14.90;99.90;;;;;;6093369;23;20022;-83
2023/07/30 03:55:59;;;;;;;12.68;4.80;;;14.90;99.90;;;;;;6093315;23;20041;-82
2023/07/30 03:58:25;;;;;;;8.65;4.10;;;14.90;99.90;;;;;;6068963;23;20024;-83
2023/07/30 04:00:50;;;;;;;12.63;4.82;;;14.90;99.90;;;;;;6045212;23;20014;-83
2023/07/30 04:03:16;;;;;;;10.60;4.20;;;14.90;99.90;;;;;;6069636;23;20113;-83
2023/07/30 04:05:41;;;;;;;10.25;4.10;;;14.90;99.90;;;;;;6094491;23;20014;-83
2023/07/30 04:08:07;;;;;;;11.13;4.30;;;14.90;99.90;;;;;;6069678;23;20078;-82
2023/07/30 04:10:33;;;;;;;8.77;3.92;;;14.90;99.90;;;;;;6093889;23;20089;-83
2023/07/30 04:12:59;;;;;;;8.65;3.90;;;14.90;99.90;;;;;;6046141;23;20385;-83
2023/07/30 04:15:25;;;;;;;12.40;4.53;;;14.90;99.90;;;;;;6093874;23;20015;-83
2023/07/30 04:17:51;;;;;;;11.30;3.90;;;14.90;99.90;;;;;;6046041;23;20081;-83
2023/07/30 04:20:17;;;;;;;11.05;4.10;;;14.90;99.90;;;;;;6093558;23;20014;-83
2023/07/30 04:22:43;;;;;;;9.70;3.75;;;14.80;99.90;;;;;;6093727;23;20456;-83
2023/07/30 04:25:10;;;;;;;11.90;4.40;;;14.80;99.90;;;;;;6070079;23;20034;-83
2023/07/30 04:27:37;;;;;;;13.80;4.07;;;14.80;99.90;;;;;;6093113;23;20018;-83
2023/07/30 04:30:04;;;;;;;9.95;4.15;;;14.80;99.90;;;;;;6093464;23;20441;-83
2023/07/30 04:32:30;;;;;;;10.10;4.20;;;14.80;99.90;;;;;;6093502;23;20022;-83
2023/07/30 04:34:55;;;;;;;13.52;4.82;;;14.80;99.90;;;;;;6070130;23;20011;-82
2023/07/30 04:37:21;;;;;;;11.75;4.53;;;14.80;99.90;;;;;;6071400;23;20041;-83
2023/07/30 04:39:47;;;;;;;9.70;4.38;;;14.80;99.90;;;;;;6072744;23;20056;-83
2023/07/30 04:42:14;;;;;;;12.77;4.85;;;14.90;99.90;;;;;;6073581;23;20011;-83
2023/07/30 04:44:40;;;;;;;15.32;4.50;;;14.90;99.90;;;;;;6073124;23;20145;-83
2023/07/30 04:47:07;;;;;;;11.65;4.22;;;14.90;99.90;;;;;;6072812;23;20045;-83
2023/07/30 04:49:33;;;;;;;8.60;4.20;;;15.00;99.90;;;;;;6096579;23;20018;-83
2023/07/30 04:51:59;;;;;;;13.70;4.65;;;15.00;99.90;;;;;;6096577;23;20519;-83
2023/07/30 04:54:24;;;;;;;15.05;4.53;;;15.00;99.90;;;;;;6096533;23;20018;-83
2023/07/30 04:56:50;;;;;;;11.80;4.50;;;15.00;99.90;;;;;;6048718;23;20030;-82
2023/07/30 04:59:16;;;;;;;15.20;4.78;;;15.10;99.90;;;;;;6072683;23;20029;-83
2023/07/30 05:01:42;;;;;;;10.77;4.50;;;15.20;99.90;;;;;;6045311;23;20022;-83
2023/07/30 05:04:07;;;;;;;17.48;5.05;;;15.20;99.90;;;;;;6097029;23;20017;-83
2023/07/30 05:06:33;;;;;;;11.80;5.10;;;15.30;99.90;;;;;;6049291;23;20123;-83
2023/07/30 05:08:59;;;;;;;18.23;5.30;;;15.30;99.90;;;;;;6073054;23;20053;-83
2023/07/30 05:11:24;;;;;;;11.15;4.30;;;15.30;99.90;;;;;;6048691;23;20368;-83
2023/07/30 05:13:50;;;;;;;13.85;5.50;;;15.40;99.90;;;;;;6096884;23;20073;-83
2023/07/30 05:16:16;;;;;;;8.52;4.60;;;15.40;99.90;;;;;;6096985;23;20022;-83
2023/07/30 05:18:42;;;;;;;11.38;4.88;;;15.40;99.90;;;;;;6072712;23;20022;-83
2023/07/30 05:21:07;;;;;;;13.85;5.20;;;15.40;99.90;;;;;;6096631;23;20085;-83
2023/07/30 05:23:33;;;;;;;11.60;4.93;;;15.50;99.90;;;;;;6072848;23;20014;-83
2023/07/30 05:25:59;;;;;;;12.43;4.97;;;15.50;99.90;;;;;;6073146;23;20036;-83
2023/07/30 05:28:24;;;;;;;14.85;4.90;;;15.50;99.90;;;;;;6072930;23;20026;-83
2023/07/30 05:30:50;;;;;;;12.40;4.90;;;15.50;99.90;;;;;;6073166;23;20586;-83
2023/07/30 05:33:16;;;;;;;18.90;5.35;;;15.50;99.90;;;;;;6097170;23;20030;-83
2023/07/30 05:35:41;;;;;;;16.58;5.28;;;15.50;99.90;;;;;;6097475;23;20069;-83
2023/07/30 05:38:07;;;;;;;14.27;5.20;;;15.50;99.90;;;;;;6048901;23;20042;-83
2023/07/30 05:40:35;;;;;;;13.07;5.65;;;15.50;99.90;;;;;;6096824;23;20097;-83
2023/07/30 05:43:01;;;;;;;16.83;5.95;;;15.50;99.90;;;;;;6096942;23;20018;-83
2023/07/30 05:45:26;;;;;;;17.52;5.20;;;15.50;99.90;;;;;;6096663;23;20018;-83
2023/07/30 05:47:52;;;;;;;14.85;5.32;;;15.60;99.90;;;;;;6072283;23;20018;-83
2023/07/30 05:50:18;;;;;;;15.07;5.80;;;15.60;99.90;;;;;;6094045;23;20014;-83
2023/07/30 05:52:44;;;;;;;11.02;4.93;;;15.60;99.90;;;;;;6094508;23;20057;-83
2023/07/30 05:55:09;;;;;;;14.05;5.13;;;15.70;99.90;;;;;;6094277;23;20636;-82
2023/07/30 05:57:35;;;;;;;18.00;5.90;;;15.70;99.90;;;;;;6070710;23;20025;-82
2023/07/30 06:00:02;;;;;;;17.17;5.50;;;15.70;99.90;;;;;;6045620;23;20018;-82
2023/07/30 06:02:27;;;;;;;13.20;6.07;;;15.70;99.90;;;;;;6069289;23;20022;-82
2023/07/30 06:04:53;;;;;;;13.23;5.88;;;15.70;99.90;;;;;;6093496;23;20329;-81
2023/07/30 06:07:19;;;;;;;15.73;6.28;;;15.80;99.90;;;;;;6069377;23;20018;-82
2023/07/30 06:09:45;;;;;;;15.55;6.28;;;15.80;99.90;;;;;;6093190;23;20322;-83
2023/07/30 06:12:11;;;;;;;12.85;5.45;;;15.80;99.90;;;;;;6069408;23;20022;-81
2023/07/30 06:14:36;;;;;;;16.05;5.55;;;15.90;99.90;;;;;;6069678;23;20512;-82
2023/07/30 06:17:02;;;;;;;17.38;5.82;;;16.00;99.90;;;;;;6093591;23;20025;-82
2023/07/30 06:19:28;;;;;;;18.52;6.20;;;16.00;99.90;;;;;;6070067;23;20530;-82
2023/07/30 06:21:54;;;;;;;15.40;5.38;;;16.00;99.90;;;;;;6093170;23;20113;-82
2023/07/30 06:24:19;;;;;;;16.23;6.63;;;16.10;99.90;;;;;;6093500;23;20014;-83
2023/07/30 06:26:45;;;;;;;18.10;6.30;;;16.10;99.90;;;;;;6069385;23;20045;-82
2023/07/30 06:29:11;;;;;;;18.88;6.00;;;16.10;99.90;;;;;;6068863;23;20019;-82
2023/07/30 06:31:36;;;;;;;15.15;5.85;;;16.10;99.90;;;;;;6045794;23;20050;-82
2023/07/30 06:34:02;;;;;;;13.32;5.55;;;16.20;99.90;;;;;;6068513;23;20018;-82
2023/07/30 06:36:28;;;;;;;17.50;6.18;;;16.20;99.90;;;;;;6093204;23;20061;-82
2023/07/30 06:38:54;;;;;;;17.98;6.07;;;16.20;99.90;;;;;;6070590;23;20550;-81
2023/07/30 06:41:21;;;;;;;21.90;6.88;;;16.20;99.90;;;;;;6068947;23;20014;-82
2023/07/30 06:43:46;;;;;;;21.48;6.88;;;16.30;99.90;;;;;;6069359;23;20025;-80
2023/07/30 06:46:12;;;;;;;16.33;6.22;;;16.30;99.90;;;;;;6069211;23;20015;-82
2023/07/30 06:48:38;;;;;;;20.02;6.55;;;16.30;99.90;;;;;;6092883;23;20098;-82
2023/07/30 06:51:07;;;;;;;18.75;6.65;;;16.30;99.90;;;;;;6069736;23;20050;-82
2023/07/30 06:53:33;;;;;;;17.88;6.18;;;16.30;99.90;;;;;;6069664;23;20430;-82
2023/07/30 06:55:59;;;;;;;22.75;6.78;;;16.30;99.90;;;;;;6069535;23;20050;-81
2023/07/30 06:58:25;;;;;;;20.98;6.32;;;16.40;99.90;;;;;;6095011;23;20014;-82
2023/07/30 07:00:50;;;;;;;18.83;7.00;;;16.50;99.90;;;;;;6092798;23;20019;-82
2023/07/30 07:03:18;;;;;;;14.93;5.57;;;16.60;99.90;;;;;;6093060;23;20090;-82
2023/07/30 07:05:43;;;;;;;19.75;6.97;;;16.80;99.90;;;;;;6069678;23;20022;-81
2023/07/30 07:08:09;;;;;;;17.00;5.85;;;16.90;99.90;;;;;;6068830;23;20014;-81
2023/07/30 07:10:35;;;;;;;17.75;6.10;;;17.00;99.90;;;;;;6069280;23;20018;-80
2023/07/30 07:13:00;;;;;;;13.88;5.97;;;17.00;99.90;;;;;;6070496;23;20415;-82
2023/07/30 07:15:26;;;;;;;17.67;5.53;;;17.10;99.90;;;;;;6046684;23;20077;-81
2023/07/30 07:17:52;;;;;;;14.60;5.50;;;17.10;99.90;;;;;;6070529;23;20345;-81
2023/07/30 07:20:18;;;;;;;15.73;5.65;;;17.10;99.90;;;;;;6045124;23;20018;-81
2023/07/30 07:22:43;;;;;;;14.90;5.35;;;17.20;99.90;;;;;;6069161;23;20017;-81
2023/07/30 07:25:10;;;;;;;17.85;5.57;;;17.20;99.90;;;;;;6068693;23;20095;-81
2023/07/30 07:27:35;;;;;;;12.68;5.60;;;17.30;99.90;;;;;;6093177;23;20018;-82
2023/07/30 07:30:01;;;;;;;13.50;4.65;;;17.40;99.90;;;;;;6070639;23;20093;-81
2023/07/30 07:32:27;;;;;;;12.98;4.93;;;17.50;99.90;;;;;;6070161;23;20033;-81
2023/07/30 07:34:53;;;;;;;16.52;5.07;;;17.60;99.90;;;;;;6046578;23;20115;-82
2023/07/30 07:37:18;;;;;;;11.98;4.72;;;17.70;99.90;;;;;;6046006;23;20018;-82
2023/07/30 07:39:45;;;;;;;10.68;4.55;;;17.80;99.90;;;;;;6070273;23;20022;-81
2023/07/30 07:42:11;;;;;;;12.43;4.47;;;17.80;99.90;;;;;;6070128;23;20019;-82
2023/07/30 07:44:37;;;;;;;13.82;3.90;;;17.90;99.90;;;;;;6094265;23;20014;-81
2023/07/30 07:47:03;;;;;;;12.38;4.40;;;17.90;99.90;;;;;;6069860;23;20113;-81
2023/07/30 07:49:29;;;;;;;16.08;4.20;;;18.10;99.90;;;;;;6094058;23;20042;-82
2023/07/30 07:51:55;;;;;;;14.00;4.90;;;18.10;99.90;;;;;;6093957;23;20752;-81
2023/07/30 07:54:20;;;;;;;14.45;4.63;;;18.10;99.90;;;;;;6046365;23;20022;-82
2023/07/30 07:56:46;;;;;;;12.95;4.70;;;18.00;99.90;;;;;;6094175;23;20022;-81
2023/07/30 07:59:12;;;;;;;11.07;4.57;;;18.00;99.90;;;;;;6094178;23;20025;-81
2023/07/30 08:01:38;;;;;;;14.90;4.57;;;18.10;99.90;;;;;;6094128;23;20018;-82
2023/07/30 08:04:03;;;;;;;11.23;4.07;;;18.20;99.90;;;;;;6093915;23;20018;-82
2023/07/30 08:06:31;;;;;;;16.70;4.13;;;18.40;99.90;;;;;;6070311;23;20464;-82
2023/07/30 08:08:57;;;;;;;10.60;3.65;;;18.60;99.90;;;;;;6093583;23;20065;-82
2023/07/30 08:11:23;;;;;;;12.48;4.03;;;18.70;99.90;;;;;;6093381;23;20022;-83
2023/07/30 08:13:48;;;;;;;12.82;3.83;;;18.70;99.90;;;;;;6069790;23;20372;-82
2023/07/30 08:16:14;;;;;;;10.77;3.40;;;18.60;99.90;;;;;;6093287;23;20014;-82
2023/07/30 08:18:40;;;;;;;11.63;3.83;;;18.50;99.90;;;;;;6069484;23;20046;-81
2023/07/30 08:21:05;;;;;;;11.23;3.38;;;18.50;99.90;;;;;;6069013;23;20157;-81
2023/07/30 08:23:31;;;;;;;10.52;4.10;;;18.40;99.90;;;;;;6070476;23;20021;-82
2023/07/30 08:25:57;;;;;;;11.60;3.55;;;18.50;99.90;;;;;;6070073;23;20150;-82
2023/07/30 08:28:22;;;;;;;10.13;3.40;;;18.50;99.90;;;;;;6070051;23;20127;-82
2023/07/30 08:30:48;;;;;;;9.25;3.00;;;18.80;99.90;;;;;;6045863;23;20025;-82
2023/07/30 08:33:14;;;;;;;8.50;2.83;;;18.90;99.90;;;;;;6069803;23;20101;-83
2023/07/30 08:35:39;;;;;;;7.78;3.05;;;18.90;99.90;;;;;;6093714;23;20021;-82
2023/07/30 08:38:05;;;;;;;9.95;3.28;;;18.80;99.90;;;;;;6093539;23;20018;-83
2023/07/30 08:40:31;;;;;;;11.02;3.65;;;18.70;99.90;;;;;;6093393;23;20022;-83
2023/07/30 08:42:57;;;;;;;10.07;3.45;;;18.50;99.90;;;;;;6094325;23;20342;-83
2023/07/30 08:45:23;;;;;;;13.18;3.75;;;18.40;99.90;;;;;;6093970;23;20024;-83
2023/07/30 08:47:49;;;;;;;9.05;3.25;;;18.30;99.90;;;;;;6093980;23;20772;-83
2023/07/30 08:50:15;;;;;;;7.55;2.83;;;18.20;99.90;;;;;;6045815;23;20019;-83
2023/07/30 08:52:41;;;;;;;5.50;2.45;;;18.10;99.90;;;;;;6092797;23;20034;-84
2023/07/30 08:55:07;;;;;;;4.90;1.90;;;17.80;99.90;;;;;;6093800;23;20068;-83
2023/07/30 08:57:33;;;;;;;6.20;2.03;;;17.50;99.90;;;;;;6093832;23;20456;-82
2023/07/30 09:00:10;;;;;;;7.20;2.35;;;17.20;99.90;;;;;;6093829;23;20097;-84
2023/07/30 09:02:48;;;;;;;8.82;2.80;;;17.00;99.90;;;;;;6070826;23;20030;-82
2023/07/30 09:05:14;;;;;;;5.22;2.10;;;16.80;99.90;;;;;;6068754;23;20012;-82
2023/07/30 09:07:40;;;;;;;5.60;2.40;;;16.70;99.90;;;;;;6093316;23;20014;-82
2023/07/30 09:10:06;;;;;;;6.97;2.85;;;16.60;99.90;;;;;;6068476;23;20022;-83
2023/07/30 09:12:33;;;;;;;9.35;2.78;;;16.50;99.90;;;;;;6067788;23;20015;-84
2023/07/30 09:15:00;;;;;;;6.57;2.88;;;16.30;99.90;;;;;;6092156;23;20093;-84
2023/07/30 09:17:26;;;;;;;6.40;3.00;;;16.30;99.90;;;;;;6067443;23;20536;-84
2023/07/30 09:19:52;;;;;;;7.93;2.63;;;16.20;99.90;;;;;;6092374;23;20022;-83
2023/07/30 09:22:29;;;;;;;7.20;2.55;;;16.10;99.90;;;;;;6091835;23;20018;-85
2023/07/30 09:24:56;;;;;;;9.48;2.90;;;16.00;99.90;;;;;;6093786;23;20011;-84
2023/07/30 09:27:26;;;;;;;8.65;2.85;;;15.90;99.90;;;;;;6094142;23;20018;-84
2023/07/30 09:29:56;;;;;;;8.60;3.22;;;15.80;99.90;;;;;;6094091;23;20070;-84
2023/07/30 09:32:32;;;;;;;13.48;2.97;;;15.80;99.90;;;;;;6093866;23;20385;-83
2023/07/30 09:35:09;;;;;;;8.57;3.40;;;15.80;99.90;;;;;;6092948;23;20094;-84
2023/07/30 09:37:40;;;;;;;10.55;3.75;;;15.80;99.90;;;;;;6069831;23;20105;-84
2023/07/30 09:40:14;;;;;;;8.97;3.17;;;15.80;99.90;;;;;;6070096;23;20117;-84
2023/07/30 09:42:48;;;;;;;13.30;3.50;;;15.90;99.90;;;;;;6093774;23;20601;-83
2023/07/30 09:45:24;;;;;;;10.23;3.45;;;15.90;99.90;;;;;;6094482;23;20453;-83
2023/07/30 09:47:51;;;;;;;9.10;3.72;;;15.90;99.90;;;;;;6094297;23;20385;-83
2023/07/30 09:50:17;;;;;;;10.50;3.28;;;15.90;99.90;;;;;;6094108;23;20394;-83
2023/07/30 09:52:43;;;;;;;7.85;3.15;;;15.80;99.90;;;;;;6093614;23;20014;-87
2023/07/30 09:55:10;;;;;;;6.53;2.30;;;15.80;99.90;;;;;;6093650;23;20014;-85
2023/07/30 09:57:39;;;;;;;7.15;2.47;;;15.70;99.90;;;;;;6069362;23;20014;-83
2023/07/30 10:00:06;;;;;;;8.93;2.80;;;15.50;99.90;;;;;;6089128;23;20010;-85
2023/07/30 10:02:35;;;;;;;6.07;2.60;;;15.40;99.90;;;;;;6088771;23;20019;-86
2023/07/30 10:05:03;;;;;;;6.88;2.70;;;15.40;99.90;;;;;;6089801;23;20101;-87
2023/07/30 10:07:29;;;;;;;7.43;2.67;;;15.30;99.90;;;;;;6066569;23;20022;-83
2023/07/30 10:10:00;;;;;;;7.82;2.65;;;15.40;99.90;;;;;;6088998;23;20728;-83
2023/07/30 10:12:33;;;;;;;3.83;2.30;;;15.40;99.90;;;;;;6090076;23;20054;-83
2023/07/30 10:15:00;;;;;;;6.47;2.92;;;15.40;99.90;;;;;;6090664;23;20027;-83
2023/07/30 10:17:26;;;;;;;7.05;3.17;;;15.50;99.90;;;;;;6067849;23;20461;-84
2023/07/30 10:19:51;;;;;;;6.65;2.42;;;15.50;99.90;;;;;;6091382;23;20026;-82
2023/07/30 10:22:17;;;;;;;5.85;2.95;;;15.60;99.90;;;;;;6070910;23;20021;-85
2023/07/30 10:24:59;;;;;;;6.05;2.88;;;15.60;99.90;;;;;;6095137;23;20016;-85
2023/07/30 10:27:27;;;;;;;6.30;2.92;;;15.70;99.90;;;;;;6095124;23;20026;-83
2023/07/30 10:30:11;;;;;;;9.98;3.55;;;15.80;99.90;;;;;;6071991;23;20380;-84
2023/07/30 10:32:59;;;;;;;7.47;3.17;;;15.80;99.90;;;;;;6095207;23;20672;-84
2023/07/30 10:35:45;;;;;;;8.20;3.30;;;15.90;99.90;;;;;;6094970;23;20054;-82
2023/07/30 10:38:30;;;;;;;7.70;2.75;;;16.00;99.90;;;;;;6095364;23;20018;-84
2023/07/30 10:41:10;;;;;;;5.75;2.40;;;16.20;99.90;;;;;;6095780;23;20021;-85
2023/07/30 10:43:39;;;;;;;9.30;3.05;;;16.50;99.90;;;;;;6095351;23;20017;-84
2023/07/30 10:46:05;;;;;;;8.27;3.13;;;16.80;99.90;;;;;;6095401;23;20021;-83
2023/07/30 10:48:39;;;;;;;9.82;3.08;;;17.10;99.90;;;;;;6095357;23;20088;-85
2023/07/30 10:51:08;;;;;;;6.63;2.97;;;17.30;99.90;;;;;;6094882;23;20088;-83
2023/07/30 10:53:36;;;;;;;4.78;2.33;;;17.40;99.90;;;;;;6071165;23;20018;-84
2023/07/30 10:56:13;;;;;;;10.48;3.20;;;17.50;99.90;;;;;;6071764;23;20018;-84
2023/07/30 10:58:39;;;;;;;6.85;2.97;;;17.70;99.90;;;;;;6072753;23;20010;-85
2023/07/30 11:01:06;;;;;;;8.95;2.78;;;17.90;99.90;;;;;;6094675;23;20014;-84
2023/07/30 11:03:32;;;;;;;6.75;2.70;;;18.10;99.90;;;;;;6095879;23;20070;-83
2023/07/30 11:05:59;;;;;;;7.78;3.63;;;18.40;99.90;;;;;;6095939;23;20026;-85
2023/07/30 11:08:38;;;;;;;10.82;3.05;;;18.60;99.90;;;;;;6071464;23;20377;-84
2023/07/30 11:11:06;;;;;;;6.63;2.90;;;18.70;99.90;;;;;;6095136;23;20014;-84
2023/07/30 11:13:46;;;;;;;9.10;3.08;;;18.80;99.90;;;;;;6095515;23;20085;-84
2023/07/30 11:16:13;;;;;;;9.90;3.08;;;19.00;99.90;;;;;;6095123;23;20021;-83
2023/07/30 11:18:41;;;;;;;7.82;3.10;;;19.30;99.90;;;;;;6093243;23;20141;-85
2023/07/30 11:21:11;;;;;;;6.60;2.50;;;19.50;99.90;;;;;;6066834;23;20015;-85
2023/07/30 11:23:39;;;;;;;8.53;2.90;;;19.80;99.90;;;;;;6067275;23;20062;-83
2023/07/30 11:26:07;;;;;;;10.07;2.83;;;19.80;99.90;;;;;;6090925;23;20656;-84
2023/07/30 11:28:35;;;;;;;6.38;2.67;;;19.90;99.90;;;;;;6090105;23;20014;-83
2023/07/30 11:31:09;;;;;;;6.95;2.92;;;19.90;99.90;;;;;;6091179;23;20022;-84
2023/07/30 11:33:38;;;;;;;6.35;2.28;;;20.10;99.90;;;;;;6091665;23;20022;-85
2023/07/30 11:36:04;;;;;;;8.00;2.45;;;20.20;99.90;;;;;;6089999;23;20049;-84
2023/07/30 11:38:31;;;;;;;8.57;2.53;;;20.20;99.90;;;;;;6091158;23;20025;-83
2023/07/30 11:40:57;;;;;;;7.70;2.55;;;20.30;99.90;;;;;;6068172;23;20345;-83
2023/07/30 11:43:23;;;;;;;6.68;2.30;;;20.40;99.90;;;;;;6094752;23;20041;-84
2023/07/30 11:46:05;;;;;;;6.32;2.03;;;20.40;99.90;;;;;;6091695;23;20453;-84
2023/07/30 11:48:31;;;;;;;6.55;2.05;;;20.30;99.90;;;;;;6093022;23;20018;-84
2023/07/30 11:50:56;;;;;;;7.40;2.15;;;20.20;99.90;;;;;;6067792;23;20018;-83
2023/07/30 11:53:43;;;;;;;5.68;1.92;;;20.30;99.90;;;;;;6093227;23;20019;-84
2023/07/30 11:56:19;;;;;;;6.22;2.20;;;20.50;99.90;;;;;;6094790;23;20022;-83
2023/07/30 11:58:47;;;;;;;4.00;1.95;;;20.60;99.90;;;;;;6094582;23;20015;-84
2023/07/30 12:01:13;;;;;;;8.63;2.42;;;20.80;99.90;;;;;;6094546;23;20014;-83
2023/07/30 12:03:41;;;;;;;5.75;1.80;;;20.70;99.90;;;;;;6068896;23;20422;-83
2023/07/30 12:06:08;;;;;;;8.05;2.75;;;20.90;99.90;;;;;;6069543;23;20022;-85
2023/07/30 12:08:37;;;;;;;5.32;2.08;;;20.80;99.90;;;;;;6094326;23;20014;-84
2023/07/30 12:11:04;;;;;;;5.55;2.17;;;20.90;99.90;;;;;;6094855;23;20025;-84
2023/07/30 12:13:31;;;;;;;5.32;2.03;;;21.00;99.90;;;;;;6093139;23;20049;-82
2023/07/30 12:15:57;;;;;;;4.28;2.15;;;21.10;99.90;;;;;;6094401;23;20021;-83
2023/07/30 12:18:25;;;;;;;6.88;2.25;;;21.20;99.90;;;;;;6093611;23;20010;-84
2023/07/30 12:20:51;;;;;;;6.32;2.42;;;21.00;99.90;;;;;;6092166;23;20336;-85
2023/07/30 12:23:18;;;;;;;8.70;2.15;;;20.70;99.90;;;;;;6093327;23;20420;-83
2023/07/30 12:25:43;;;;;;;7.07;2.50;;;20.50;99.90;;;;;;6092374;23;20060;-84
2023/07/30 12:28:09;;;;;;;6.10;1.90;;;20.10;99.90;;;;;;6091230;23;20341;-86
2023/07/30 12:30:36;;;;;;;9.98;2.30;;;19.70;99.90;;;;;;6090600;23;20045;-84
2023/07/30 12:33:03;;;;;;;8.40;2.38;;;19.40;99.90;;;;;;6091043;23;20029;-84
2023/07/30 12:35:30;;;;;;;4.72;2.10;;;19.20;99.90;;;;;;6090812;23;20018;-84
2023/07/30 12:37:56;;;;;;;9.18;2.38;;;19.00;99.90;;;;;;6067601;23;20018;-83
2023/07/30 12:40:21;;;;;;;7.03;2.42;;;19.00;99.90;;;;;;6068483;23;20467;-84